sensor_id;sensor_type;location;lat;lon;timestamp;temperature;humidity
71563;DHT22;59391;52.504;13.438;2023-05-07T00:01:45;11.70;67.10
71563;DHT22;59391;52.504;13.438;2023-05-07T00:04:11;11.70;67.00
71563;DHT22;59391;52.504;13.438;2023-05-07T00:06:36;11.70;67.20
71563;DHT22;59391;52.504;13.438;2023-05-07T00:09:02;11.70;67.20
71563;DHT22;59391;52.504;13.438;2023-05-07T00:11:29;11.70;67.30
71563;DHT22;59391;52.504;13.438;2023-05-07T00:13:55;11.70;67.10
71563;DHT22;59391;52.504;13.438;2023-05-07T00:16:20;11.80;67.00
71563;DHT22;59391;52.504;13.438;2023-05-07T00:18:46;11.70;66.90
71563;DHT22;59391;52.504;13.438;2023-05-07T00:21:12;11.70;66.70
71563;DHT22;59391;52.504;13.438;2023-05-07T00:23:37;11.70;66.60
71563;DHT22;59391;52.504;13.438;2023-05-07T00:26:03;11.70;66.70
71563;DHT22;59391;52.504;13.438;2023-05-07T00:28:29;11.70;66.60
71563;DHT22;59391;52.504;13.438;2023-05-07T00:30:55;11.70;66.70
71563;DHT22;59391;52.504;13.438;2023-05-07T00:33:21;11.70;66.60
71563;DHT22;59391;52.504;13.438;2023-05-07T00:35:47;11.70;66.70
71563;DHT22;59391;52.504;13.438;2023-05-07T00:38:13;11.70;66.70
71563;DHT22;59391;52.504;13.438;2023-05-07T00:40:39;11.70;66.70
71563;DHT22;59391;52.504;13.438;2023-05-07T00:43:04;11.70;66.60
71563;DHT22;59391;52.504;13.438;2023-05-07T00:45:30;11.70;66.60
71563;DHT22;59391;52.504;13.438;2023-05-07T00:47:58;11.70;66.50
71563;DHT22;59391;52.504;13.438;2023-05-07T00:50:26;11.70;66.60
71563;DHT22;59391;52.504;13.438;2023-05-07T00:52:52;11.70;66.40
71563;DHT22;59391;52.504;13.438;2023-05-07T00:55:19;11.60;66.30
71563;DHT22;59391;52.504;13.438;2023-05-07T00:57:45;11.60;66.40
71563;DHT22;59391;52.504;13.438;2023-05-07T01:00:11;11.60;66.50
71563;DHT22;59391;52.504;13.438;2023-05-07T01:02:41;11.60;66.50
71563;DHT22;59391;52.504;13.438;2023-05-07T01:05:09;11.60;66.50
71563;DHT22;59391;52.504;13.438;2023-05-07T01:07:38;11.60;66.60
71563;DHT22;59391;52.504;13.438;2023-05-07T01:10:06;11.60;66.60
71563;DHT22;59391;52.504;13.438;2023-05-07T01:12:34;11.50;66.60
71563;DHT22;59391;52.504;13.438;2023-05-07T01:15:02;11.50;66.70
71563;DHT22;59391;52.504;13.438;2023-05-07T01:17:37;11.50;66.80
71563;DHT22;59391;52.504;13.438;2023-05-07T01:20:06;11.60;66.70
71563;DHT22;59391;52.504;13.438;2023-05-07T01:22:34;11.60;66.60
71563;DHT22;59391;52.504;13.438;2023-05-07T01:25:05;11.50;66.60
71563;DHT22;59391;52.504;13.438;2023-05-07T01:27:32;11.60;66.50
71563;DHT22;59391;52.504;13.438;2023-05-07T01:29:59;11.50;66.50
71563;DHT22;59391;52.504;13.438;2023-05-07T01:35:18;11.50;66.30
71563;DHT22;59391;52.504;13.438;2023-05-07T01:37:49;11.50;66.30
71563;DHT22;59391;52.504;13.438;2023-05-07T01:40:15;11.60;66.30
71563;DHT22;59391;52.504;13.438;2023-05-07T01:42:43;11.60;66.30
71563;DHT22;59391;52.504;13.438;2023-05-07T01:45:09;11.50;66.20
71563;DHT22;59391;52.504;13.438;2023-05-07T01:47:37;11.60;66.10
71563;DHT22;59391;52.504;13.438;2023-05-07T01:50:06;11.60;66.10
71563;DHT22;59391;52.504;13.438;2023-05-07T01:52:39;11.50;66.10
71563;DHT22;59391;52.504;13.438;2023-05-07T01:55:05;11.60;66.20
71563;DHT22;59391;52.504;13.438;2023-05-07T01:57:31;11.50;66.10
71563;DHT22;59391;52.504;13.438;2023-05-07T01:59:57;11.60;65.80
71563;DHT22;59391;52.504;13.438;2023-05-07T02:02:23;11.60;65.70
71563;DHT22;59391;52.504;13.438;2023-05-07T02:04:48;11.50;65.70
71563;DHT22;59391;52.504;13.438;2023-05-07T02:07:14;11.50;65.60
71563;DHT22;59391;52.504;13.438;2023-05-07T02:09:39;11.50;65.70
71563;DHT22;59391;52.504;13.438;2023-05-07T02:12:05;11.50;65.80
71563;DHT22;59391;52.504;13.438;2023-05-07T02:14:31;11.50;65.80
71563;DHT22;59391;52.504;13.438;2023-05-07T02:16:56;11.50;65.90
71563;DHT22;59391;52.504;13.438;2023-05-07T02:19:22;11.50;66.00
71563;DHT22;59391;52.504;13.438;2023-05-07T02:21:47;11.50;66.10
71563;DHT22;59391;52.504;13.438;2023-05-07T02:24:13;11.50;66.10
71563;DHT22;59391;52.504;13.438;2023-05-07T02:26:42;11.50;66.10
71563;DHT22;59391;52.504;13.438;2023-05-07T02:29:07;11.50;66.10
71563;DHT22;59391;52.504;13.438;2023-05-07T02:31:33;11.50;66.10
71563;DHT22;59391;52.504;13.438;2023-05-07T02:34:01;11.50;66.10
71563;DHT22;59391;52.504;13.438;2023-05-07T02:36:27;11.50;66.00
71563;DHT22;59391;52.504;13.438;2023-05-07T02:38:53;11.50;66.00
71563;DHT22;59391;52.504;13.438;2023-05-07T02:41:19;11.50;66.00
71563;DHT22;59391;52.504;13.438;2023-05-07T02:43:45;11.50;66.00
71563;DHT22;59391;52.504;13.438;2023-05-07T02:46:10;11.50;65.80
71563;DHT22;59391;52.504;13.438;2023-05-07T02:48:36;11.50;65.70
71563;DHT22;59391;52.504;13.438;2023-05-07T02:51:02;11.60;65.70
71563;DHT22;59391;52.504;13.438;2023-05-07T02:53:29;11.60;65.60
71563;DHT22;59391;52.504;13.438;2023-05-07T02:55:59;11.60;65.50
71563;DHT22;59391;52.504;13.438;2023-05-07T02:58:26;11.60;65.40
71563;DHT22;59391;52.504;13.438;2023-05-07T03:00:52;11.60;65.40
71563;DHT22;59391;52.504;13.438;2023-05-07T03:03:20;11.60;65.50
71563;DHT22;59391;52.504;13.438;2023-05-07T03:05:46;11.60;65.50
71563;DHT22;59391;52.504;13.438;2023-05-07T03:08:12;11.60;65.20
71563;DHT22;59391;52.504;13.438;2023-05-07T03:10:38;11.60;65.00
71563;DHT22;59391;52.504;13.438;2023-05-07T03:13:04;11.60;64.90
71563;DHT22;59391;52.504;13.438;2023-05-07T03:15:30;11.60;64.70
71563;DHT22;59391;52.504;13.438;2023-05-07T03:17:55;11.60;64.60
71563;DHT22;59391;52.504;13.438;2023-05-07T03:20:22;11.60;64.70
71563;DHT22;59391;52.504;13.438;2023-05-07T03:22:48;11.60;64.80
71563;DHT22;59391;52.504;13.438;2023-05-07T03:25:13;11.60;64.90
71563;DHT22;59391;52.504;13.438;2023-05-07T03:27:40;11.60;64.90
71563;DHT22;59391;52.504;13.438;2023-05-07T03:30:07;11.60;64.90
71563;DHT22;59391;52.504;13.438;2023-05-07T03:32:34;11.70;64.80
71563;DHT22;59391;52.504;13.438;2023-05-07T03:35:00;11.70;64.70
71563;DHT22;59391;52.504;13.438;2023-05-07T03:37:26;11.70;64.70
71563;DHT22;59391;52.504;13.438;2023-05-07T03:39:52;11.70;64.70
71563;DHT22;59391;52.504;13.438;2023-05-07T03:42:17;11.70;64.70
71563;DHT22;59391;52.504;13.438;2023-05-07T03:44:43;11.70;64.70
71563;DHT22;59391;52.504;13.438;2023-05-07T03:47:09;11.70;64.60
71563;DHT22;59391;52.504;13.438;2023-05-07T03:49:35;11.70;64.50
71563;DHT22;59391;52.504;13.438;2023-05-07T03:52:01;11.70;64.40
71563;DHT22;59391;52.504;13.438;2023-05-07T03:54:26;11.70;64.50
71563;DHT22;59391;52.504;13.438;2023-05-07T03:56:52;11.60;64.50
71563;DHT22;59391;52.504;13.438;2023-05-07T03:59:17;11.60;64.50
71563;DHT22;59391;52.504;13.438;2023-05-07T04:01:43;11.60;64.60
71563;DHT22;59391;52.504;13.438;2023-05-07T04:04:09;11.50;64.80
71563;DHT22;59391;52.504;13.438;2023-05-07T04:06:34;11.50;64.90
71563;DHT22;59391;52.504;13.438;2023-05-07T04:09:00;11.50;64.90
71563;DHT22;59391;52.504;13.438;2023-05-07T04:11:26;11.50;64.90
71563;DHT22;59391;52.504;13.438;2023-05-07T04:13:51;11.50;64.80
71563;DHT22;59391;52.504;13.438;2023-05-07T04:16:17;11.50;64.90
71563;DHT22;59391;52.504;13.438;2023-05-07T04:18:42;11.50;64.90
71563;DHT22;59391;52.504;13.438;2023-05-07T04:21:19;11.50;64.90
71563;DHT22;59391;52.504;13.438;2023-05-07T04:23:48;11.50;65.00
71563;DHT22;59391;52.504;13.438;2023-05-07T04:26:15;11.50;64.90
71563;DHT22;59391;52.504;13.438;2023-05-07T04:28:41;11.50;64.70
71563;DHT22;59391;52.504;13.438;2023-05-07T04:31:07;11.50;64.70
71563;DHT22;59391;52.504;13.438;2023-05-07T04:33:33;11.50;64.60
71563;DHT22;59391;52.504;13.438;2023-05-07T04:36:02;11.60;64.50
71563;DHT22;59391;52.504;13.438;2023-05-07T04:38:29;11.50;64.50
71563;DHT22;59391;52.504;13.438;2023-05-07T04:40:57;11.60;64.50
71563;DHT22;59391;52.504;13.438;2023-05-07T04:43:27;11.60;64.40
71563;DHT22;59391;52.504;13.438;2023-05-07T04:45:53;11.60;64.10
71563;DHT22;59391;52.504;13.438;2023-05-07T04:48:18;11.60;64.00
71563;DHT22;59391;52.504;13.438;2023-05-07T04:50:49;11.60;63.90
71563;DHT22;59391;52.504;13.438;2023-05-07T04:53:19;11.70;63.90
71563;DHT22;59391;52.504;13.438;2023-05-07T04:55:45;11.70;63.60
71563;DHT22;59391;52.504;13.438;2023-05-07T04:58:11;11.70;63.30
71563;DHT22;59391;52.504;13.438;2023-05-07T05:00:38;11.70;63.40
71563;DHT22;59391;52.504;13.438;2023-05-07T05:03:05;11.70;63.20
71563;DHT22;59391;52.504;13.438;2023-05-07T05:05:34;11.70;62.80
71563;DHT22;59391;52.504;13.438;2023-05-07T05:07:59;11.70;62.70
71563;DHT22;59391;52.504;13.438;2023-05-07T05:10:25;11.70;62.80
71563;DHT22;59391;52.504;13.438;2023-05-07T05:12:51;11.70;62.60
71563;DHT22;59391;52.504;13.438;2023-05-07T05:15:17;11.70;62.40
71563;DHT22;59391;52.504;13.438;2023-05-07T05:17:42;11.70;62.40
71563;DHT22;59391;52.504;13.438;2023-05-07T05:20:08;11.70;62.50
71563;DHT22;59391;52.504;13.438;2023-05-07T05:22:36;11.70;62.30
71563;DHT22;59391;52.504;13.438;2023-05-07T05:25:01;11.70;62.20
71563;DHT22;59391;52.504;13.438;2023-05-07T05:27:27;11.70;62.40
71563;DHT22;59391;52.504;13.438;2023-05-07T05:29:53;11.70;62.10
71563;DHT22;59391;52.504;13.438;2023-05-07T05:32:19;11.70;61.80
71563;DHT22;59391;52.504;13.438;2023-05-07T05:34:44;11.70;61.70
71563;DHT22;59391;52.504;13.438;2023-05-07T05:37:10;11.70;61.80
71563;DHT22;59391;52.504;13.438;2023-05-07T05:39:36;11.70;61.90
71563;DHT22;59391;52.504;13.438;2023-05-07T05:42:02;11.70;61.90
71563;DHT22;59391;52.504;13.438;2023-05-07T05:44:27;11.70;61.70
71563;DHT22;59391;52.504;13.438;2023-05-07T05:46:53;11.70;61.70
71563;DHT22;59391;52.504;13.438;2023-05-07T05:49:23;11.70;61.70
71563;DHT22;59391;52.504;13.438;2023-05-07T05:51:48;11.70;61.60
71563;DHT22;59391;52.504;13.438;2023-05-07T05:54:14;11.70;61.60
71563;DHT22;59391;52.504;13.438;2023-05-07T05:56:41;11.60;61.70
71563;DHT22;59391;52.504;13.438;2023-05-07T05:59:07;11.70;62.00
71563;DHT22;59391;52.504;13.438;2023-05-07T06:01:33;11.70;62.20
71563;DHT22;59391;52.504;13.438;2023-05-07T06:03:58;11.70;62.30
71563;DHT22;59391;52.504;13.438;2023-05-07T06:06:24;11.70;61.90
71563;DHT22;59391;52.504;13.438;2023-05-07T06:08:49;11.80;61.90
71563;DHT22;59391;52.504;13.438;2023-05-07T06:11:15;11.80;61.80
71563;DHT22;59391;52.504;13.438;2023-05-07T06:13:41;11.80;62.00
71563;DHT22;59391;52.504;13.438;2023-05-07T06:16:06;11.90;61.90
71563;DHT22;59391;52.504;13.438;2023-05-07T06:18:32;12.00;61.80
71563;DHT22;59391;52.504;13.438;2023-05-07T06:20:58;12.00;61.60
71563;DHT22;59391;52.504;13.438;2023-05-07T06:23:23;12.10;61.30
71563;DHT22;59391;52.504;13.438;2023-05-07T06:25:50;12.10;60.90
71563;DHT22;59391;52.504;13.438;2023-05-07T06:28:16;12.10;60.90
71563;DHT22;59391;52.504;13.438;2023-05-07T06:30:42;12.20;60.90
71563;DHT22;59391;52.504;13.438;2023-05-07T06:33:08;12.20;61.00
71563;DHT22;59391;52.504;13.438;2023-05-07T06:35:33;12.20;60.90
71563;DHT22;59391;52.504;13.438;2023-05-07T06:38:00;12.20;60.80
71563;DHT22;59391;52.504;13.438;2023-05-07T06:40:26;12.30;60.60
71563;DHT22;59391;52.504;13.438;2023-05-07T06:42:52;12.30;60.20
71563;DHT22;59391;52.504;13.438;2023-05-07T06:45:17;12.30;59.90
71563;DHT22;59391;52.504;13.438;2023-05-07T06:47:44;12.30;59.80
71563;DHT22;59391;52.504;13.438;2023-05-07T06:50:10;12.30;60.00
71563;DHT22;59391;52.504;13.438;2023-05-07T06:52:35;12.30;60.20
71563;DHT22;59391;52.504;13.438;2023-05-07T06:55:01;12.30;60.40
71563;DHT22;59391;52.504;13.438;2023-05-07T06:57:27;12.40;60.30
71563;DHT22;59391;52.504;13.438;2023-05-07T06:59:52;12.40;60.30
71563;DHT22;59391;52.504;13.438;2023-05-07T07:02:24;12.50;59.90
71563;DHT22;59391;52.504;13.438;2023-05-07T07:04:52;12.60;59.40
71563;DHT22;59391;52.504;13.438;2023-05-07T07:07:17;12.70;59.30
71563;DHT22;59391;52.504;13.438;2023-05-07T07:09:43;12.70;59.30
71563;DHT22;59391;52.504;13.438;2023-05-07T07:12:09;12.70;58.80
71563;DHT22;59391;52.504;13.438;2023-05-07T07:14:34;12.80;58.20
71563;DHT22;59391;52.504;13.438;2023-05-07T07:17:00;12.80;58.40
71563;DHT22;59391;52.504;13.438;2023-05-07T07:19:26;12.90;58.50
71563;DHT22;59391;52.504;13.438;2023-05-07T07:21:51;12.90;58.30
71563;DHT22;59391;52.504;13.438;2023-05-07T07:24:17;13.00;57.40
71563;DHT22;59391;52.504;13.438;2023-05-07T07:26:46;13.00;57.60
71563;DHT22;59391;52.504;13.438;2023-05-07T07:29:12;13.10;57.90
71563;DHT22;59391;52.504;13.438;2023-05-07T07:31:37;13.10;57.50
71563;DHT22;59391;52.504;13.438;2023-05-07T07:34:04;13.20;57.60
71563;DHT22;59391;52.504;13.438;2023-05-07T07:36:30;13.30;57.70
71563;DHT22;59391;52.504;13.438;2023-05-07T07:38:55;13.40;57.50
71563;DHT22;59391;52.504;13.438;2023-05-07T07:41:21;13.50;57.40
71563;DHT22;59391;52.504;13.438;2023-05-07T07:43:46;13.50;56.80
71563;DHT22;59391;52.504;13.438;2023-05-07T07:46:12;13.60;56.40
71563;DHT22;59391;52.504;13.438;2023-05-07T07:48:38;13.70;56.30
71563;DHT22;59391;52.504;13.438;2023-05-07T07:51:04;13.80;55.70
71563;DHT22;59391;52.504;13.438;2023-05-07T07:53:30;13.90;55.60
71563;DHT22;59391;52.504;13.438;2023-05-07T07:55:56;13.90;55.00
71563;DHT22;59391;52.504;13.438;2023-05-07T07:58:21;14.00;54.90
71563;DHT22;59391;52.504;13.438;2023-05-07T08:00:47;14.00;54.70
71563;DHT22;59391;52.504;13.438;2023-05-07T08:03:13;14.00;53.60
71563;DHT22;59391;52.504;13.438;2023-05-07T08:05:41;14.10;53.30
71563;DHT22;59391;52.504;13.438;2023-05-07T08:08:07;14.10;53.00
71563;DHT22;59391;52.504;13.438;2023-05-07T08:10:33;14.20;53.20
71563;DHT22;59391;52.504;13.438;2023-05-07T08:13:00;14.20;53.60
71563;DHT22;59391;52.504;13.438;2023-05-07T08:15:27;14.20;52.50
71563;DHT22;59391;52.504;13.438;2023-05-07T08:17:52;14.30;52.40
71563;DHT22;59391;52.504;13.438;2023-05-07T08:20:18;14.40;52.20
71563;DHT22;59391;52.504;13.438;2023-05-07T08:22:43;14.40;51.80
71563;DHT22;59391;52.504;13.438;2023-05-07T08:25:09;14.50;51.70
71563;DHT22;59391;52.504;13.438;2023-05-07T08:27:35;14.50;51.90
71563;DHT22;59391;52.504;13.438;2023-05-07T08:30:01;14.60;51.50
71563;DHT22;59391;52.504;13.438;2023-05-07T08:32:27;14.70;51.40
71563;DHT22;59391;52.504;13.438;2023-05-07T08:34:53;14.80;51.10
71563;DHT22;59391;52.504;13.438;2023-05-07T08:37:18;14.90;51.60
71563;DHT22;59391;52.504;13.438;2023-05-07T08:39:44;15.10;51.20
71563;DHT22;59391;52.504;13.438;2023-05-07T08:42:09;15.30;50.40
71563;DHT22;59391;52.504;13.438;2023-05-07T08:44:38;15.60;49.80
71563;DHT22;59391;52.504;13.438;2023-05-07T08:47:07;15.80;48.60
71563;DHT22;59391;52.504;13.438;2023-05-07T08:49:34;16.00;48.60
71563;DHT22;59391;52.504;13.438;2023-05-07T08:52:00;16.30;48.00
71563;DHT22;59391;52.504;13.438;2023-05-07T08:54:27;16.50;47.80
71563;DHT22;59391;52.504;13.438;2023-05-07T08:56:54;16.70;47.10
71563;DHT22;59391;52.504;13.438;2023-05-07T08:59:20;17.00;46.80
71563;DHT22;59391;52.504;13.438;2023-05-07T09:01:46;17.20;45.80
71563;DHT22;59391;52.504;13.438;2023-05-07T09:04:12;17.30;45.60
71563;DHT22;59391;52.504;13.438;2023-05-07T09:06:38;17.50;45.10
71563;DHT22;59391;52.504;13.438;2023-05-07T09:09:07;17.60;44.40
71563;DHT22;59391;52.504;13.438;2023-05-07T09:11:33;17.70;44.90
71563;DHT22;59391;52.504;13.438;2023-05-07T09:13:59;17.70;45.20
71563;DHT22;59391;52.504;13.438;2023-05-07T09:16:30;17.90;44.10
71563;DHT22;59391;52.504;13.438;2023-05-07T09:18:58;18.00;44.00
71563;DHT22;59391;52.504;13.438;2023-05-07T09:21:25;18.00;44.10
71563;DHT22;59391;52.504;13.438;2023-05-07T09:23:53;18.10;44.50
71563;DHT22;59391;52.504;13.438;2023-05-07T09:26:23;18.20;44.10
71563;DHT22;59391;52.504;13.438;2023-05-07T09:28:49;18.30;43.70
71563;DHT22;59391;52.504;13.438;2023-05-07T09:31:15;18.50;43.10
71563;DHT22;59391;52.504;13.438;2023-05-07T09:33:41;18.60;43.70
71563;DHT22;59391;52.504;13.438;2023-05-07T09:36:08;18.60;42.80
71563;DHT22;59391;52.504;13.438;2023-05-07T09:38:36;18.70;42.50
71563;DHT22;59391;52.504;13.438;2023-05-07T09:41:13;18.70;42.10
71563;DHT22;59391;52.504;13.438;2023-05-07T09:43:39;18.60;42.40
71563;DHT22;59391;52.504;13.438;2023-05-07T09:46:14;18.50;42.50
71563;DHT22;59391;52.504;13.438;2023-05-07T09:48:43;18.40;42.50
71563;DHT22;59391;52.504;13.438;2023-05-07T09:51:21;18.40;42.30
71563;DHT22;59391;52.504;13.438;2023-05-07T09:53:52;18.20;42.80
71563;DHT22;59391;52.504;13.438;2023-05-07T09:56:18;18.20;42.60
71563;DHT22;59391;52.504;13.438;2023-05-07T09:58:46;18.10;42.80
71563;DHT22;59391;52.504;13.438;2023-05-07T10:01:12;18.10;42.90
71563;DHT22;59391;52.504;13.438;2023-05-07T10:03:41;18.10;42.80
71563;DHT22;59391;52.504;13.438;2023-05-07T10:06:09;18.10;42.20
71563;DHT22;59391;52.504;13.438;2023-05-07T10:08:36;18.20;41.70
71563;DHT22;59391;52.504;13.438;2023-05-07T10:11:04;18.20;41.30
71563;DHT22;59391;52.504;13.438;2023-05-07T10:13:32;18.20;41.90
71563;DHT22;59391;52.504;13.438;2023-05-07T10:16:00;18.30;41.70
71563;DHT22;59391;52.504;13.438;2023-05-07T10:18:26;18.40;42.10
71563;DHT22;59391;52.504;13.438;2023-05-07T10:21:01;18.50;42.50
71563;DHT22;59391;52.504;13.438;2023-05-07T10:23:36;18.70;42.30
71563;DHT22;59391;52.504;13.438;2023-05-07T10:26:05;18.90;40.70
71563;DHT22;59391;52.504;13.438;2023-05-07T10:28:36;19.00;40.20
71563;DHT22;59391;52.504;13.438;2023-05-07T10:33:56;19.30;39.70
71563;DHT22;59391;52.504;13.438;2023-05-07T10:36:24;19.40;39.80
71563;DHT22;59391;52.504;13.438;2023-05-07T10:38:51;19.50;39.40
71563;DHT22;59391;52.504;13.438;2023-05-07T10:41:17;19.50;39.70
71563;DHT22;59391;52.504;13.438;2023-05-07T10:43:45;19.60;39.80
71563;DHT22;59391;52.504;13.438;2023-05-07T10:46:17;19.50;39.40
71563;DHT22;59391;52.504;13.438;2023-05-07T10:51:29;19.40;40.00
71563;DHT22;59391;52.504;13.438;2023-05-07T10:56:38;19.50;40.10
71563;DHT22;59391;52.504;13.438;2023-05-07T10:59:30;19.70;39.70
71563;DHT22;59391;52.504;13.438;2023-05-07T11:01:59;19.90;38.60
71563;DHT22;59391;52.504;13.438;2023-05-07T11:04:28;19.90;38.10
71563;DHT22;59391;52.504;13.438;2023-05-07T11:15:12;19.80;39.50
71563;DHT22;59391;52.504;13.438;2023-05-07T11:17:55;20.00;38.70
71563;DHT22;59391;52.504;13.438;2023-05-07T11:26:03;20.30;37.20
71563;DHT22;59391;52.504;13.438;2023-05-07T11:28:43;20.30;37.20
71563;DHT22;59391;52.504;13.438;2023-05-07T11:31:09;20.20;37.10
71563;DHT22;59391;52.504;13.438;2023-05-07T11:33:38;20.10;37.80
71563;DHT22;59391;52.504;13.438;2023-05-07T11:36:04;20.00;38.00
71563;DHT22;59391;52.504;13.438;2023-05-07T11:38:34;20.00;37.80
71563;DHT22;59391;52.504;13.438;2023-05-07T11:41:00;20.10;37.40
71563;DHT22;59391;52.504;13.438;2023-05-07T11:43:27;20.10;37.70
71563;DHT22;59391;52.504;13.438;2023-05-07T11:45:53;20.20;37.80
71563;DHT22;59391;52.504;13.438;2023-05-07T11:48:18;20.30;37.50
71563;DHT22;59391;52.504;13.438;2023-05-07T11:50:52;20.40;37.70
71563;DHT22;59391;52.504;13.438;2023-05-07T11:53:28;20.40;37.30
71563;DHT22;59391;52.504;13.438;2023-05-07T11:56:09;20.50;37.00
71563;DHT22;59391;52.504;13.438;2023-05-07T11:58:37;20.40;37.20
71563;DHT22;59391;52.504;13.438;2023-05-07T12:01:04;20.40;37.20
71563;DHT22;59391;52.504;13.438;2023-05-07T12:03:29;20.30;37.30
71563;DHT22;59391;52.504;13.438;2023-05-07T12:05:55;20.20;37.60
71563;DHT22;59391;52.504;13.438;2023-05-07T12:08:21;20.00;37.60
71563;DHT22;59391;52.504;13.438;2023-05-07T12:10:48;20.00;37.70
71563;DHT22;59391;52.504;13.438;2023-05-07T12:13:22;19.90;37.60
71563;DHT22;59391;52.504;13.438;2023-05-07T12:15:53;20.00;37.90
71563;DHT22;59391;52.504;13.438;2023-05-07T12:18:20;20.10;37.50
71563;DHT22;59391;52.504;13.438;2023-05-07T12:20:48;20.30;37.50
71563;DHT22;59391;52.504;13.438;2023-05-07T12:23:15;20.50;37.10
71563;DHT22;59391;52.504;13.438;2023-05-07T12:25:42;20.70;36.40
71563;DHT22;59391;52.504;13.438;2023-05-07T12:28:13;20.90;36.00
71563;DHT22;59391;52.504;13.438;2023-05-07T12:30:44;21.20;36.30
71563;DHT22;59391;52.504;13.438;2023-05-07T12:33:17;21.30;35.20
71563;DHT22;59391;52.504;13.438;2023-05-07T12:35:43;21.40;35.20
71563;DHT22;59391;52.504;13.438;2023-05-07T12:38:11;21.40;34.90
71563;DHT22;59391;52.504;13.438;2023-05-07T12:40:39;21.30;35.00
71563;DHT22;59391;52.504;13.438;2023-05-07T12:43:07;21.10;34.80
71563;DHT22;59391;52.504;13.438;2023-05-07T12:45:40;20.90;35.50
71563;DHT22;59391;52.504;13.438;2023-05-07T12:48:07;20.80;35.50
71563;DHT22;59391;52.504;13.438;2023-05-07T12:50:35;20.80;35.70
71563;DHT22;59391;52.504;13.438;2023-05-07T12:53:03;20.70;35.40
71563;DHT22;59391;52.504;13.438;2023-05-07T12:55:48;20.60;35.60
71563;DHT22;59391;52.504;13.438;2023-05-07T12:58:41;20.50;36.10
71563;DHT22;59391;52.504;13.438;2023-05-07T13:01:07;20.50;36.30
71563;DHT22;59391;52.504;13.438;2023-05-07T13:03:36;20.60;36.00
71563;DHT22;59391;52.504;13.438;2023-05-07T13:06:05;20.50;35.40
71563;DHT22;59391;52.504;13.438;2023-05-07T13:08:34;20.50;35.40
71563;DHT22;59391;52.504;13.438;2023-05-07T13:11:11;20.40;35.60
71563;DHT22;59391;52.504;13.438;2023-05-07T13:13:39;20.50;35.40
71563;DHT22;59391;52.504;13.438;2023-05-07T13:16:08;20.60;34.80
71563;DHT22;59391;52.504;13.438;2023-05-07T13:18:35;20.60;34.70
71563;DHT22;59391;52.504;13.438;2023-05-07T13:21:01;20.60;34.80
71563;DHT22;59391;52.504;13.438;2023-05-07T13:23:28;20.70;35.10
71563;DHT22;59391;52.504;13.438;2023-05-07T13:25:54;20.70;35.40
71563;DHT22;59391;52.504;13.438;2023-05-07T13:28:21;20.80;35.10
71563;DHT22;59391;52.504;13.438;2023-05-07T13:30:48;20.80;34.70
71563;DHT22;59391;52.504;13.438;2023-05-07T13:33:14;20.90;34.80
71563;DHT22;59391;52.504;13.438;2023-05-07T13:35:41;20.90;34.80
71563;DHT22;59391;52.504;13.438;2023-05-07T13:38:07;20.90;34.70
71563;DHT22;59391;52.504;13.438;2023-05-07T13:40:33;21.00;34.80
71563;DHT22;59391;52.504;13.438;2023-05-07T13:42:59;21.00;34.90
71563;DHT22;59391;52.504;13.438;2023-05-07T13:45:28;21.00;35.00
71563;DHT22;59391;52.504;13.438;2023-05-07T13:47:55;21.00;34.80
71563;DHT22;59391;52.504;13.438;2023-05-07T13:50:22;20.90;34.80
71563;DHT22;59391;52.504;13.438;2023-05-07T13:52:48;20.80;34.90
71563;DHT22;59391;52.504;13.438;2023-05-07T13:55:20;20.80;35.30
71563;DHT22;59391;52.504;13.438;2023-05-07T13:57:47;20.80;35.40
71563;DHT22;59391;52.504;13.438;2023-05-07T14:00:13;20.70;35.90
71563;DHT22;59391;52.504;13.438;2023-05-07T14:02:40;20.80;35.60
71563;DHT22;59391;52.504;13.438;2023-05-07T14:05:06;20.90;35.30
71563;DHT22;59391;52.504;13.438;2023-05-07T14:07:32;20.90;35.30
71563;DHT22;59391;52.504;13.438;2023-05-07T14:09:58;21.00;35.20
71563;DHT22;59391;52.504;13.438;2023-05-07T14:12:23;20.90;35.10
71563;DHT22;59391;52.504;13.438;2023-05-07T14:14:49;20.90;35.10
71563;DHT22;59391;52.504;13.438;2023-05-07T14:17:16;20.90;35.20
71563;DHT22;59391;52.504;13.438;2023-05-07T14:19:42;20.80;35.10
71563;DHT22;59391;52.504;13.438;2023-05-07T14:22:08;20.80;35.40
71563;DHT22;59391;52.504;13.438;2023-05-07T14:24:34;20.70;35.20
71563;DHT22;59391;52.504;13.438;2023-05-07T14:27:00;20.70;35.30
71563;DHT22;59391;52.504;13.438;2023-05-07T14:29:25;20.60;35.50
71563;DHT22;59391;52.504;13.438;2023-05-07T14:31:51;20.60;35.40
71563;DHT22;59391;52.504;13.438;2023-05-07T14:34:17;20.40;35.30
71563;DHT22;59391;52.504;13.438;2023-05-07T14:36:42;20.40;35.60
71563;DHT22;59391;52.504;13.438;2023-05-07T14:39:09;20.30;34.90
71563;DHT22;59391;52.504;13.438;2023-05-07T14:41:35;20.20;34.90
71563;DHT22;59391;52.504;13.438;2023-05-07T14:44:00;20.20;35.10
71563;DHT22;59391;52.504;13.438;2023-05-07T14:46:29;20.10;35.30
71563;DHT22;59391;52.504;13.438;2023-05-07T14:48:57;20.00;35.50
71563;DHT22;59391;52.504;13.438;2023-05-07T14:51:23;19.90;35.80
71563;DHT22;59391;52.504;13.438;2023-05-07T14:53:50;19.80;35.80
71563;DHT22;59391;52.504;13.438;2023-05-07T14:56:16;19.70;36.10
71563;DHT22;59391;52.504;13.438;2023-05-07T14:58:42;19.60;36.30
71563;DHT22;59391;52.504;13.438;2023-05-07T15:01:08;19.60;36.60
71563;DHT22;59391;52.504;13.438;2023-05-07T15:03:34;19.60;36.80
71563;DHT22;59391;52.504;13.438;2023-05-07T15:06:00;19.60;36.80
71563;DHT22;59391;52.504;13.438;2023-05-07T15:08:26;19.60;36.50
71563;DHT22;59391;52.504;13.438;2023-05-07T15:10:51;19.60;36.50
71563;DHT22;59391;52.504;13.438;2023-05-07T15:13:17;19.60;36.60
71563;DHT22;59391;52.504;13.438;2023-05-07T15:15:44;19.60;36.80
71563;DHT22;59391;52.504;13.438;2023-05-07T15:18:10;19.60;36.90
71563;DHT22;59391;52.504;13.438;2023-05-07T15:20:37;19.60;36.90
71563;DHT22;59391;52.504;13.438;2023-05-07T15:23:02;19.50;37.10
71563;DHT22;59391;52.504;13.438;2023-05-07T15:25:30;19.50;36.90
71563;DHT22;59391;52.504;13.438;2023-05-07T15:27:58;19.40;37.10
71563;DHT22;59391;52.504;13.438;2023-05-07T15:30:23;19.40;37.20
71563;DHT22;59391;52.504;13.438;2023-05-07T15:32:49;19.30;37.00
71563;DHT22;59391;52.504;13.438;2023-05-07T15:35:16;19.20;37.30
71563;DHT22;59391;52.504;13.438;2023-05-07T15:37:41;19.20;37.70
71563;DHT22;59391;52.504;13.438;2023-05-07T15:40:07;19.20;37.80